createdAt,value
2018-06-15T00:00:31.492Z,18.70
2018-06-15T00:03:04.087Z,20.33
2018-06-15T00:05:33.346Z,19.73
2018-06-15T00:08:02.055Z,19.10
2018-06-15T00:10:31.338Z,19.60
2018-06-15T00:13:00.121Z,22.07
2018-06-15T00:15:28.912Z,19.27
2018-06-15T00:17:57.537Z,18.23
2018-06-15T00:20:26.443Z,21.33
2018-06-15T00:22:55.116Z,21.53
2018-06-15T00:25:23.684Z,22.87
2018-06-15T00:27:52.479Z,24.47
2018-06-15T00:30:21.127Z,22.37
2018-06-15T00:32:49.914Z,23.63
2018-06-15T00:35:18.600Z,23.60
2018-06-15T00:37:47.289Z,18.60
2018-06-15T00:40:15.939Z,23.93
2018-06-15T00:42:44.977Z,25.53
2018-06-15T00:45:13.747Z,26.53
2018-06-15T00:47:42.338Z,22.23
2018-06-15T00:50:10.952Z,22.17
2018-06-15T00:52:39.684Z,23.27
2018-06-15T00:55:08.415Z,28.37
2018-06-15T00:57:49.570Z,27.83
2018-06-15T01:00:18.743Z,20.37
2018-06-15T01:02:47.755Z,24.33
2018-06-15T01:05:16.495Z,20.07
2018-06-15T01:07:45.172Z,23.50
2018-06-15T01:10:13.959Z,24.07
2018-06-15T01:12:43.213Z,19.60
2018-06-15T01:15:13.476Z,18.27
2018-06-15T01:17:42.071Z,19.87
2018-06-15T01:20:10.829Z,24.17
2018-06-15T01:22:39.501Z,21.07
2018-06-15T01:25:08.228Z,20.00
2018-06-15T01:27:36.855Z,18.70
2018-06-15T01:30:06.147Z,19.00
2018-06-15T01:32:34.883Z,24.73
2018-06-15T01:35:03.956Z,20.20
2018-06-15T01:37:32.696Z,20.00
2018-06-15T01:40:01.312Z,22.00
2018-06-15T01:42:29.918Z,26.30
2018-06-15T01:44:58.786Z,18.50
2018-06-15T01:47:27.415Z,20.77
2018-06-15T01:49:56.065Z,23.07
2018-06-15T01:52:25.245Z,26.53
2018-06-15T01:54:53.949Z,18.30
2018-06-15T01:57:22.741Z,17.67
2018-06-15T01:59:51.426Z,31.40
2018-06-15T02:02:20.004Z,21.83
2018-06-15T02:04:48.799Z,20.60
2018-06-15T02:07:17.486Z,25.37
2018-06-15T02:09:46.199Z,23.63
2018-06-15T02:12:14.861Z,28.60
2018-06-15T02:14:43.542Z,21.07
2018-06-15T02:17:12.127Z,21.17
2018-06-15T02:19:41.017Z,24.87
2018-06-15T02:22:09.807Z,21.63
2018-06-15T02:24:38.535Z,24.70
2018-06-15T02:27:07.251Z,18.30
2018-06-15T02:29:35.937Z,22.17
2018-06-15T02:32:04.484Z,20.93
2018-06-15T02:34:33.234Z,20.20
2018-06-15T02:37:01.917Z,28.23
2018-06-15T02:39:30.510Z,18.60
2018-06-15T02:41:59.154Z,21.37
2018-06-15T02:44:27.874Z,18.33
2018-06-15T02:46:57.360Z,17.33
2018-06-15T02:49:25.964Z,19.20
2018-06-15T02:51:54.553Z,19.63
2018-06-15T02:54:23.212Z,21.30
2018-06-15T02:56:51.975Z,16.43
2018-06-15T02:59:20.808Z,21.40
2018-06-15T03:01:49.493Z,23.20
2018-06-15T03:04:18.076Z,24.87
2018-06-15T03:06:46.678Z,28.23
2018-06-15T03:09:15.238Z,17.23
2018-06-15T03:11:44.032Z,27.60
2018-06-15T03:14:12.616Z,20.87
2018-06-15T03:16:41.198Z,26.50
2018-06-15T03:19:09.871Z,24.33
2018-06-15T03:21:38.467Z,20.20
2018-06-15T03:24:07.090Z,20.10
2018-06-15T03:26:36.533Z,24.20
2018-06-15T03:29:05.604Z,26.97
2018-06-15T03:31:34.797Z,24.33
2018-06-15T03:34:04.135Z,21.50
2018-06-15T03:36:32.720Z,25.50
2018-06-15T03:39:01.660Z,22.03
2018-06-15T03:41:30.360Z,23.50
2018-06-15T03:43:59.115Z,20.27
2018-06-15T03:46:27.889Z,20.00
2018-06-15T03:48:56.715Z,23.30
2018-06-15T03:51:25.461Z,22.37
2018-06-15T03:53:54.149Z,23.57
2018-06-15T03:56:23.209Z,22.73
2018-06-15T03:58:52.111Z,20.40
2018-06-15T04:01:21.024Z,25.50
2018-06-15T04:03:49.715Z,22.80
2018-06-15T04:06:18.396Z,29.60
2018-06-15T04:08:47.099Z,22.57
2018-06-15T04:11:16.336Z,20.20
2018-06-15T04:13:45.871Z,27.23
2018-06-15T04:16:14.574Z,22.93
2018-06-15T04:18:43.684Z,24.10
2018-06-15T04:21:12.499Z,23.10
2018-06-15T04:23:41.355Z,20.43
2018-06-15T04:26:10.441Z,23.67
2018-06-15T04:28:39.183Z,18.30
2018-06-15T04:31:08.105Z,17.63
2018-06-15T04:33:36.820Z,22.40
2018-06-15T04:36:05.598Z,20.27
2018-06-15T04:38:34.278Z,19.80
2018-06-15T04:41:03.476Z,21.27
2018-06-15T04:43:32.189Z,21.07
2018-06-15T04:46:00.840Z,19.80
2018-06-15T04:48:29.538Z,20.50
2018-06-15T04:50:58.239Z,20.33
2018-06-15T04:53:26.774Z,21.43
2018-06-15T04:55:55.325Z,25.60
2018-06-15T04:58:24.081Z,16.30
2018-06-15T05:00:55.630Z,23.20
2018-06-15T05:03:24.289Z,22.80
2018-06-15T05:05:53.040Z,20.90
2018-06-15T05:08:21.620Z,21.20
2018-06-15T05:10:50.235Z,24.23
2018-06-15T05:13:19.115Z,19.73
2018-06-15T05:15:47.803Z,18.30
2018-06-15T05:18:16.487Z,18.53
2018-06-15T05:20:45.037Z,21.33
2018-06-15T05:23:13.739Z,19.83
2018-06-15T05:25:42.599Z,24.70
2018-06-15T05:28:11.270Z,27.53
2018-06-15T05:30:39.959Z,23.83
2018-06-15T05:33:08.588Z,23.83
2018-06-15T05:35:37.243Z,24.20
2018-06-15T05:38:06.008Z,26.00
2018-06-15T05:40:34.727Z,24.87
2018-06-15T05:43:03.334Z,22.53
2018-06-15T05:45:32.051Z,19.10
2018-06-15T05:48:00.715Z,22.63
2018-06-15T05:50:29.296Z,28.13
2018-06-15T05:52:58.184Z,23.57
2018-06-15T05:55:27.837Z,23.90
2018-06-15T05:57:56.968Z,20.83
2018-06-15T06:00:25.724Z,22.27
2018-06-15T06:02:54.427Z,22.33
2018-06-15T06:05:23.223Z,22.00
2018-06-15T06:07:51.819Z,23.87
2018-06-15T06:10:20.469Z,24.20
2018-06-15T06:12:49.077Z,26.00
2018-06-15T06:15:17.834Z,29.93
2018-06-15T06:17:46.919Z,22.30
2018-06-15T06:20:15.590Z,22.77
2018-06-15T06:22:44.368Z,25.77
2018-06-15T06:25:13.076Z,24.47
2018-06-15T06:27:41.985Z,28.07
2018-06-15T06:30:10.940Z,22.53
2018-06-15T06:32:39.582Z,23.30
2018-06-15T06:35:08.350Z,23.03
2018-06-15T06:37:36.942Z,20.17
2018-06-15T06:40:05.634Z,18.87
2018-06-15T06:42:34.318Z,20.97
2018-06-15T06:45:03.093Z,19.73
2018-06-15T06:47:31.725Z,18.47
2018-06-15T06:50:00.944Z,17.33
2018-06-15T06:52:29.675Z,19.10
2018-06-15T06:54:59.091Z,22.40
2018-06-15T06:57:27.765Z,15.43
2018-06-15T06:59:56.387Z,18.93
2018-06-15T07:02:24.991Z,19.23
2018-06-15T07:04:53.602Z,18.10
2018-06-15T07:07:22.393Z,20.60
2018-06-15T07:09:50.958Z,26.70
2018-06-15T07:12:19.728Z,13.73
2018-06-15T07:14:51.295Z,18.27
2018-06-15T07:17:20.074Z,17.20
2018-06-15T07:19:48.879Z,18.60
2018-06-15T07:22:17.888Z,20.30
2018-06-15T07:24:46.471Z,19.90
2018-06-15T07:27:15.154Z,18.33
2018-06-15T07:29:43.841Z,18.23
2018-06-15T07:32:12.714Z,16.80
2018-06-15T07:34:41.344Z,13.50
2018-06-15T07:37:10.096Z,21.40
2018-06-15T07:39:38.916Z,22.30
2018-06-15T07:42:07.624Z,19.27
2018-06-15T07:44:36.277Z,18.33
2018-06-15T07:47:05.000Z,13.57
2018-06-15T07:49:33.743Z,24.40
2018-06-15T07:52:02.340Z,14.20
2018-06-15T07:54:30.944Z,15.17
2018-06-15T07:56:59.700Z,14.27
2018-06-15T07:59:28.428Z,20.77
2018-06-15T08:01:57.072Z,19.00
2018-06-15T08:04:26.043Z,20.70
2018-06-15T08:06:54.743Z,14.80
2018-06-15T08:09:23.620Z,18.37
2018-06-15T08:11:52.419Z,15.07
2018-06-15T08:14:21.051Z,19.10
2018-06-15T08:16:49.696Z,15.73
2018-06-15T08:19:18.272Z,16.67
2018-06-15T08:21:46.985Z,17.37
2018-06-15T08:24:15.550Z,15.17
2018-06-15T08:26:44.334Z,13.93
2018-06-15T08:29:13.048Z,13.80
2018-06-15T08:31:41.803Z,20.83
2018-06-15T08:34:10.991Z,21.40
2018-06-15T08:36:39.593Z,16.57
2018-06-15T08:39:11.236Z,18.87
2018-06-15T08:41:39.859Z,20.33
2018-06-15T08:44:08.456Z,19.33
2018-06-15T08:46:37.574Z,23.83
2018-06-15T08:49:06.405Z,24.30
2018-06-15T08:51:35.385Z,22.23
2018-06-15T08:54:03.929Z,21.07
2018-06-15T08:56:32.492Z,12.90
2018-06-15T08:59:01.111Z,12.43
2018-06-15T09:01:29.650Z,18.93
2018-06-15T09:03:58.823Z,10.80
2018-06-15T09:06:27.516Z,17.37
2018-06-15T09:08:56.178Z,20.30
2018-06-15T09:11:25.025Z,11.90
2018-06-15T09:13:53.634Z,8.10
2018-06-15T09:16:22.451Z,14.03
2018-06-15T09:18:51.003Z,11.87
2018-06-15T09:21:19.544Z,13.60
2018-06-15T09:23:48.148Z,18.43
2018-06-15T09:26:16.781Z,11.53
2018-06-15T09:28:45.552Z,20.63
2018-06-15T09:31:14.192Z,16.43
2018-06-15T09:33:42.852Z,10.00
2018-06-15T09:36:11.430Z,9.27
2018-06-15T09:38:40.013Z,8.63
2018-06-15T09:41:08.700Z,11.87
2018-06-15T09:43:37.416Z,13.10
2018-06-15T09:46:05.995Z,12.30
2018-06-15T09:48:34.589Z,12.30
2018-06-15T09:51:03.330Z,13.30
2018-06-15T09:53:32.436Z,9.60
2018-06-15T09:56:01.115Z,11.50
2018-06-15T09:58:29.783Z,9.30
2018-06-15T10:01:03.592Z,10.57
2018-06-15T10:03:32.291Z,13.60
2018-06-15T10:06:01.013Z,8.13
2018-06-15T10:08:29.597Z,11.10
2018-06-15T10:10:58.500Z,5.97
2018-06-15T10:13:27.220Z,10.77
2018-06-15T10:15:55.821Z,9.67
2018-06-15T10:18:24.579Z,9.70
2018-06-15T10:20:53.137Z,13.27
2018-06-15T10:23:21.888Z,8.53
2018-06-15T10:25:50.480Z,11.10
2018-06-15T10:28:19.722Z,10.90
2018-06-15T10:30:48.492Z,13.97
2018-06-15T10:33:17.056Z,12.63
2018-06-15T10:35:45.607Z,9.10
2018-06-15T10:38:14.301Z,12.10
2018-06-15T10:40:42.857Z,10.27
2018-06-15T10:43:11.737Z,8.30
2018-06-15T10:45:40.486Z,10.10
2018-06-15T10:48:09.351Z,10.93
2018-06-15T10:50:37.949Z,11.03
2018-06-15T10:53:06.521Z,10.57
2018-06-15T10:55:35.292Z,11.53
2018-06-15T10:58:03.890Z,9.90
2018-06-15T11:00:32.474Z,10.83
2018-06-15T11:03:01.130Z,12.27
2018-06-15T11:05:29.707Z,8.60
2018-06-15T11:07:58.824Z,13.40
2018-06-15T11:10:27.525Z,9.83
2018-06-15T11:12:56.083Z,10.50
2018-06-15T11:15:24.720Z,7.83
2018-06-15T11:17:53.401Z,13.57
2018-06-15T11:20:21.975Z,11.50
2018-06-15T11:22:50.543Z,10.63
2018-06-15T11:25:19.107Z,10.70
2018-06-15T11:27:47.812Z,10.20
2018-06-15T11:30:16.564Z,14.43
2018-06-15T11:32:45.298Z,8.93
2018-06-15T11:35:13.896Z,9.00
2018-06-15T11:37:42.466Z,9.50
2018-06-15T11:40:11.261Z,9.27
2018-06-15T11:42:39.801Z,6.70
2018-06-15T11:45:08.638Z,7.97
2018-06-15T11:47:37.193Z,6.70
2018-06-15T11:50:05.815Z,7.60
2018-06-15T11:52:34.550Z,9.40
2018-06-15T11:55:04.011Z,8.90
2018-06-15T11:57:33.305Z,10.97
2018-06-15T12:00:02.053Z,21.63
2018-06-15T12:02:30.785Z,9.33
2018-06-15T12:04:59.493Z,10.07
2018-06-15T12:07:28.311Z,10.67
2018-06-15T12:09:57.007Z,8.43
2018-06-15T12:12:26.131Z,10.57
2018-06-15T12:14:54.892Z,9.03
2018-06-15T12:17:24.195Z,8.37
2018-06-15T12:19:52.879Z,12.93
2018-06-15T12:22:22.704Z,9.30
2018-06-15T12:24:51.361Z,9.00
2018-06-15T12:27:20.192Z,9.60
2018-06-15T12:29:49.347Z,8.10
2018-06-15T12:32:18.159Z,10.00
2018-06-15T12:34:47.123Z,9.90
2018-06-15T12:37:15.929Z,12.60
2018-06-15T12:39:44.819Z,9.60
2018-06-15T12:42:14.028Z,7.00
2018-06-15T12:44:42.648Z,12.57
2018-06-15T12:47:11.284Z,10.27
2018-06-15T12:49:39.869Z,7.27
2018-06-15T12:52:08.619Z,10.30
2018-06-15T12:54:37.375Z,13.40
2018-06-15T12:57:06.547Z,8.70
2018-06-15T12:59:35.329Z,9.47
2018-06-15T13:02:04.016Z,11.93
2018-06-15T13:04:32.633Z,7.40
2018-06-15T13:07:01.301Z,11.00
2018-06-15T13:09:29.944Z,9.67
2018-06-15T13:11:58.840Z,9.70
2018-06-15T13:14:27.454Z,5.60
2018-06-15T13:16:56.030Z,6.43
2018-06-15T13:19:31.532Z,7.30
2018-06-15T13:22:00.179Z,6.50
2018-06-15T13:24:33.145Z,10.43
2018-06-15T13:27:01.833Z,8.90
2018-06-15T13:29:30.619Z,10.37
2018-06-15T13:31:59.763Z,5.73
2018-06-15T13:34:28.852Z,5.73
2018-06-15T13:36:57.575Z,6.40
2018-06-15T13:39:26.230Z,6.20
2018-06-15T13:41:54.828Z,5.17
2018-06-15T13:44:23.411Z,6.47
2018-06-15T13:46:51.990Z,7.67
2018-06-15T13:49:21.215Z,6.17
2018-06-15T13:51:49.770Z,8.50
2018-06-15T13:54:18.507Z,7.37
2018-06-15T13:56:47.232Z,8.33
2018-06-15T13:59:15.936Z,11.53
2018-06-15T14:01:44.579Z,7.37
2018-06-15T14:04:13.122Z,11.00
2018-06-15T14:06:41.726Z,12.10
2018-06-15T14:09:10.924Z,8.67
2018-06-15T14:11:39.915Z,9.30
2018-06-15T14:14:08.600Z,10.97
2018-06-15T14:16:37.320Z,8.07
2018-06-15T14:19:06.108Z,8.63
2018-06-15T14:21:34.823Z,10.70
2018-06-15T14:24:03.504Z,7.40
2018-06-15T14:26:32.420Z,12.43
2018-06-15T14:29:01.127Z,11.93
2018-06-15T14:31:29.703Z,9.57
2018-06-15T14:33:58.292Z,7.30
2018-06-15T14:36:27.020Z,10.07
2018-06-15T14:38:55.890Z,9.90
2018-06-15T14:41:24.555Z,8.47
2018-06-15T14:43:53.240Z,9.23
2018-06-15T14:46:22.131Z,10.83
2018-06-15T14:48:50.786Z,6.87
2018-06-15T14:51:19.713Z,10.27
2018-06-15T14:53:48.410Z,7.13
2018-06-15T14:56:17.125Z,7.20
2018-06-15T14:58:45.792Z,7.43
2018-06-15T15:01:14.444Z,8.20
2018-06-15T15:03:43.133Z,19.20
2018-06-15T15:06:11.825Z,6.83
2018-06-15T15:08:40.613Z,10.20
2018-06-15T15:11:09.194Z,12.50
2018-06-15T15:13:37.776Z,9.63
2018-06-15T15:16:06.770Z,10.20
2018-06-15T15:18:35.348Z,10.50
2018-06-15T15:21:04.039Z,14.00
2018-06-15T15:23:32.628Z,8.83
2018-06-15T15:26:01.514Z,10.37
2018-06-15T15:28:30.380Z,9.10
2018-06-15T15:30:59.089Z,11.50
2018-06-15T15:33:27.717Z,8.30
2018-06-15T15:35:56.772Z,10.47
2018-06-15T15:38:25.540Z,9.13
2018-06-15T15:40:54.451Z,11.13
2018-06-15T15:43:23.016Z,6.67
2018-06-15T15:45:51.780Z,12.40
2018-06-15T15:48:21.348Z,9.53
2018-06-15T15:50:50.217Z,13.73
2018-06-15T15:53:18.922Z,8.03
2018-06-15T15:55:47.692Z,11.17
2018-06-15T15:58:16.407Z,7.33
2018-06-15T16:00:45.373Z,10.90
2018-06-15T16:03:14.020Z,15.83
2018-06-15T16:05:42.754Z,9.30
2018-06-15T16:08:11.527Z,8.60
2018-06-15T16:10:40.345Z,8.63
2018-06-15T16:13:09.040Z,14.03
2018-06-15T16:15:37.802Z,18.77
2018-06-15T16:18:06.598Z,13.77
2018-06-15T16:20:35.486Z,29.67
2018-06-15T16:23:04.261Z,43.90
2018-06-15T16:25:32.839Z,21.37
2018-06-15T16:28:01.522Z,18.30
2018-06-15T16:30:30.276Z,14.90
2018-06-15T16:32:58.857Z,20.27
2018-06-15T16:35:27.595Z,9.93
2018-06-15T16:37:56.319Z,10.97
2018-06-15T16:40:24.888Z,16.53
2018-06-15T16:42:53.742Z,8.63
2018-06-15T16:45:22.431Z,10.97
2018-06-15T16:47:51.011Z,10.47
2018-06-15T16:50:19.583Z,10.53
2018-06-15T16:52:48.304Z,8.00
2018-06-15T16:55:17.178Z,11.03
2018-06-15T16:57:45.857Z,18.80
2018-06-15T17:00:14.527Z,13.27
2018-06-15T17:02:43.619Z,12.93
2018-06-15T17:05:12.172Z,11.20
2018-06-15T17:07:41.100Z,15.40
2018-06-15T17:10:09.697Z,9.80
2018-06-15T17:12:38.281Z,11.53
2018-06-15T17:15:06.924Z,15.00
2018-06-15T17:17:35.920Z,12.20
2018-06-15T17:20:04.845Z,12.30
2018-06-15T17:22:33.580Z,14.73
2018-06-15T17:25:02.513Z,14.03
2018-06-15T17:27:32.356Z,9.47
2018-06-15T17:30:01.092Z,13.30
2018-06-15T17:32:29.900Z,14.20
2018-06-15T17:34:58.778Z,16.37
2018-06-15T17:37:27.597Z,13.43
2018-06-15T17:39:56.288Z,12.60
2018-06-15T17:42:24.964Z,13.40
2018-06-15T17:44:53.688Z,12.77
2018-06-15T17:47:22.384Z,10.03
2018-06-15T17:49:51.179Z,43.80
2018-06-15T17:52:19.894Z,15.53
2018-06-15T17:54:48.728Z,14.33
2018-06-15T17:57:17.902Z,13.97
2018-06-15T17:59:46.615Z,14.73
2018-06-15T18:02:15.319Z,14.90
2018-06-15T18:04:44.150Z,15.30
2018-06-15T18:07:12.850Z,16.17
2018-06-15T18:09:42.089Z,11.77
2018-06-15T18:12:10.766Z,10.93
2018-06-15T18:14:40.112Z,12.00
2018-06-15T18:17:08.909Z,11.10
2018-06-15T18:19:37.664Z,15.33
2018-06-15T18:22:06.867Z,16.03
2018-06-15T18:24:35.583Z,15.60
2018-06-15T18:27:04.207Z,16.47
2018-06-15T18:29:41.982Z,18.60
2018-06-15T18:32:11.678Z,15.37
2018-06-15T18:34:40.572Z,14.80
2018-06-15T18:37:09.251Z,19.67
2018-06-15T18:39:38.363Z,15.07
2018-06-15T18:42:07.147Z,18.43
2018-06-15T18:44:35.831Z,16.60
2018-06-15T18:47:04.849Z,18.03
2018-06-15T18:49:33.822Z,17.40
2018-06-15T18:52:02.462Z,19.57
2018-06-15T18:54:31.363Z,17.67
2018-06-15T18:56:59.977Z,17.80
2018-06-15T18:59:29.055Z,21.33
2018-06-15T19:01:57.761Z,17.60
2018-06-15T19:04:26.446Z,29.60
2018-06-15T19:06:55.175Z,19.37
2018-06-15T19:09:23.840Z,30.97
2018-06-15T19:11:52.643Z,30.83
2018-06-15T19:14:21.531Z,19.30
2018-06-15T19:16:50.285Z,30.20
2018-06-15T19:19:18.971Z,20.10
2018-06-15T19:21:48.732Z,24.53
2018-06-15T19:24:17.692Z,26.83
2018-06-15T19:26:46.522Z,23.90
2018-06-15T19:29:15.453Z,25.77
2018-06-15T19:31:44.466Z,25.53
2018-06-15T19:34:14.280Z,20.70
2018-06-15T19:36:42.972Z,20.60
2018-06-15T19:39:12.065Z,23.73
2018-06-15T19:41:40.877Z,31.20
2018-06-15T19:44:09.822Z,30.70
2018-06-15T19:46:38.712Z,20.70
2018-06-15T19:49:07.613Z,23.53
2018-06-15T19:51:36.401Z,22.17
2018-06-15T19:54:05.211Z,25.00
2018-06-15T19:56:33.863Z,26.27
2018-06-15T19:59:02.820Z,21.83
2018-06-15T20:01:31.543Z,22.03
2018-06-15T20:04:00.260Z,29.80
2018-06-15T20:06:29.043Z,21.80
2018-06-15T20:08:57.640Z,33.17
2018-06-15T20:11:26.465Z,23.40
2018-06-15T20:13:55.148Z,22.07
2018-06-15T20:16:23.953Z,22.80
2018-06-15T20:18:52.727Z,21.53
2018-06-15T20:21:21.559Z,24.00
2018-06-15T20:23:51.291Z,25.30
2018-06-15T20:26:19.832Z,20.03
2018-06-15T20:28:48.617Z,21.13
2018-06-15T20:31:17.333Z,14.23
2018-06-15T20:33:45.999Z,19.33
2018-06-15T20:36:14.865Z,18.10
2018-06-15T20:38:43.677Z,19.37
2018-06-15T20:41:13.499Z,17.53
2018-06-15T20:43:42.395Z,25.00
2018-06-15T20:46:10.992Z,33.07
2018-06-15T20:48:39.888Z,22.43
2018-06-15T20:51:08.508Z,27.07
2018-06-15T20:53:37.156Z,17.10
2018-06-15T20:56:06.083Z,18.97
2018-06-15T20:58:34.760Z,27.07
2018-06-15T21:01:03.483Z,14.50
2018-06-15T21:03:32.235Z,15.90
2018-06-15T21:06:00.915Z,19.20
2018-06-15T21:08:29.599Z,17.70
2018-06-15T21:10:58.328Z,20.97
2018-06-15T21:13:27.636Z,20.77
2018-06-15T21:15:56.272Z,22.87
2018-06-15T21:18:25.059Z,17.47
2018-06-15T21:20:53.768Z,18.30
2018-06-15T21:23:22.427Z,21.53
2018-06-15T21:25:51.262Z,20.03
2018-06-15T21:28:19.902Z,17.23
2018-06-15T21:30:48.804Z,18.90
2018-06-15T21:33:17.506Z,28.53
2018-06-15T21:35:46.287Z,20.70
2018-06-15T21:38:14.995Z,24.40
2018-06-15T21:40:43.630Z,21.83
2018-06-15T21:43:12.333Z,19.10
2018-06-15T21:45:41.040Z,22.53
2018-06-15T21:48:09.959Z,21.07
2018-06-15T21:50:38.861Z,24.77
2018-06-15T21:53:07.590Z,26.40
2018-06-15T21:55:36.199Z,24.93
2018-06-15T21:58:04.916Z,20.20
2018-06-15T22:00:33.590Z,20.87
2018-06-15T22:03:02.237Z,26.83
2018-06-15T22:05:31.057Z,23.23
2018-06-15T22:07:59.672Z,26.23
2018-06-15T22:10:28.382Z,24.37
2018-06-15T22:12:57.116Z,23.57
2018-06-15T22:15:26.300Z,32.93
2018-06-15T22:17:54.996Z,25.63
2018-06-15T22:20:23.617Z,24.83
2018-06-15T22:22:52.468Z,25.60
2018-06-15T22:25:21.108Z,25.20
2018-06-15T22:27:49.931Z,20.80
2018-06-15T22:30:18.999Z,25.17
2018-06-15T22:32:47.727Z,33.73
2018-06-15T22:35:16.513Z,25.70
2018-06-15T22:37:45.668Z,25.10
2018-06-15T22:40:14.497Z,29.33
2018-06-15T22:42:43.080Z,32.13
2018-06-15T22:45:11.769Z,26.80
2018-06-15T22:47:40.472Z,28.53
2018-06-15T22:50:09.139Z,27.43
2018-06-15T22:52:38.132Z,20.87
2018-06-15T22:55:06.771Z,27.40
2018-06-15T22:57:35.332Z,29.00
2018-06-15T23:00:04.013Z,29.83
2018-06-15T23:02:32.667Z,29.40
2018-06-15T23:05:01.301Z,26.10
2018-06-15T23:07:30.057Z,33.00
2018-06-15T23:09:58.680Z,29.80
2018-06-15T23:12:27.411Z,33.03
2018-06-15T23:14:56.118Z,30.40
2018-06-15T23:17:24.917Z,26.20
2018-06-15T23:19:53.573Z,24.70
2018-06-15T23:22:22.271Z,26.50
2018-06-15T23:24:50.944Z,27.80
2018-06-15T23:27:19.699Z,34.53
2018-06-15T23:32:22.329Z,32.43
2018-06-15T23:34:51.526Z,28.73
2018-06-15T23:37:20.110Z,34.17
2018-06-15T23:39:48.810Z,34.50
2018-06-15T23:42:17.588Z,32.67
2018-06-15T23:44:46.819Z,41.20
2018-06-15T23:47:15.497Z,36.33
2018-06-15T23:49:44.158Z,34.90
2018-06-15T23:52:13.049Z,39.80
2018-06-15T23:54:41.811Z,37.10
2018-06-15T23:57:10.361Z,33.87
2018-06-15T23:59:39.407Z,35.80
